sensor_id;sensor_type;location;lat;lon;timestamp;temperature;humidity
33943;DHT22;66763;47.856;17.462;2023-03-04T00:00:29;12.20;46.10
33943;DHT22;66763;47.856;17.462;2023-03-04T00:02:54;12.20;46.20
33943;DHT22;66763;47.856;17.462;2023-03-04T00:05:20;12.10;46.20
33943;DHT22;66763;47.856;17.462;2023-03-04T00:07:45;12.10;46.20
33943;DHT22;66763;47.856;17.462;2023-03-04T00:10:11;12.10;46.40
33943;DHT22;66763;47.856;17.462;2023-03-04T00:12:36;12.10;46.40
33943;DHT22;66763;47.856;17.462;2023-03-04T00:15:02;12.00;46.30
33943;DHT22;66763;47.856;17.462;2023-03-04T00:17:27;12.00;46.40
33943;DHT22;66763;47.856;17.462;2023-03-04T00:19:56;12.00;46.40
33943;DHT22;66763;47.856;17.462;2023-03-04T00:22:21;12.00;46.40
33943;DHT22;66763;47.856;17.462;2023-03-04T00:24:47;12.00;46.40
33943;DHT22;66763;47.856;17.462;2023-03-04T00:27:12;12.00;46.40
33943;DHT22;66763;47.856;17.462;2023-03-04T00:29:38;12.00;46.40
33943;DHT22;66763;47.856;17.462;2023-03-04T00:32:03;12.00;46.40
33943;DHT22;66763;47.856;17.462;2023-03-04T00:34:29;12.00;46.40
33943;DHT22;66763;47.856;17.462;2023-03-04T00:36:54;12.00;46.40
33943;DHT22;66763;47.856;17.462;2023-03-04T00:39:28;12.00;46.30
33943;DHT22;66763;47.856;17.462;2023-03-04T00:41:54;12.00;46.40
33943;DHT22;66763;47.856;17.462;2023-03-04T00:44:19;12.00;46.30
33943;DHT22;66763;47.856;17.462;2023-03-04T00:46:45;12.00;46.40
33943;DHT22;66763;47.856;17.462;2023-03-04T00:49:10;11.90;46.30
33943;DHT22;66763;47.856;17.462;2023-03-04T00:51:36;11.90;46.30
33943;DHT22;66763;47.856;17.462;2023-03-04T00:54:01;11.90;46.40
33943;DHT22;66763;47.856;17.462;2023-03-04T00:56:27;11.90;46.40
33943;DHT22;66763;47.856;17.462;2023-03-04T00:58:53;11.90;46.40
33943;DHT22;66763;47.856;17.462;2023-03-04T01:01:18;11.90;46.40
33943;DHT22;66763;47.856;17.462;2023-03-04T01:03:44;11.90;46.40
33943;DHT22;66763;47.856;17.462;2023-03-04T01:06:09;11.90;46.40
33943;DHT22;66763;47.856;17.462;2023-03-04T01:08:35;11.90;46.40
33943;DHT22;66763;47.856;17.462;2023-03-04T01:11:01;11.90;46.40
33943;DHT22;66763;47.856;17.462;2023-03-04T01:13:27;11.90;46.40
33943;DHT22;66763;47.856;17.462;2023-03-04T01:15:52;11.80;46.40
33943;DHT22;66763;47.856;17.462;2023-03-04T01:18:18;11.80;46.40
33943;DHT22;66763;47.856;17.462;2023-03-04T01:20:44;11.80;46.40
33943;DHT22;66763;47.856;17.462;2023-03-04T01:23:09;11.80;46.40
33943;DHT22;66763;47.856;17.462;2023-03-04T01:25:35;11.80;46.40
33943;DHT22;66763;47.856;17.462;2023-03-04T01:28:00;11.80;46.40
33943;DHT22;66763;47.856;17.462;2023-03-04T01:30:26;11.80;46.40
33943;DHT22;66763;47.856;17.462;2023-03-04T01:32:51;11.80;46.40
33943;DHT22;66763;47.856;17.462;2023-03-04T01:35:17;11.80;46.40
33943;DHT22;66763;47.856;17.462;2023-03-04T01:37:42;11.80;46.40
33943;DHT22;66763;47.856;17.462;2023-03-04T01:40:08;11.80;46.40
33943;DHT22;66763;47.856;17.462;2023-03-04T01:42:34;11.80;46.40
33943;DHT22;66763;47.856;17.462;2023-03-04T01:45:00;11.70;46.40
33943;DHT22;66763;47.856;17.462;2023-03-04T01:47:29;11.70;46.40
33943;DHT22;66763;47.856;17.462;2023-03-04T01:49:56;11.70;46.40
33943;DHT22;66763;47.856;17.462;2023-03-04T01:52:21;11.70;46.30
33943;DHT22;66763;47.856;17.462;2023-03-04T01:54:47;11.70;46.40
33943;DHT22;66763;47.856;17.462;2023-03-04T01:57:20;11.70;46.40
33943;DHT22;66763;47.856;17.462;2023-03-04T01:59:46;11.70;46.40
33943;DHT22;66763;47.856;17.462;2023-03-04T02:02:12;11.70;46.40
33943;DHT22;66763;47.856;17.462;2023-03-04T02:04:38;11.60;46.40
33943;DHT22;66763;47.856;17.462;2023-03-04T02:07:05;11.60;46.60
33943;DHT22;66763;47.856;17.462;2023-03-04T02:09:31;11.60;46.40
33943;DHT22;66763;47.856;17.462;2023-03-04T02:11:57;11.60;46.40
33943;DHT22;66763;47.856;17.462;2023-03-04T02:14:23;11.70;46.40
33943;DHT22;66763;47.856;17.462;2023-03-04T02:16:49;11.60;46.40
33943;DHT22;66763;47.856;17.462;2023-03-04T02:21:43;11.60;47.00
33943;DHT22;66763;47.856;17.462;2023-03-04T02:26:34;11.60;46.40
33943;DHT22;66763;47.856;17.462;2023-03-04T02:29:00;11.60;46.40
33943;DHT22;66763;47.856;17.462;2023-03-04T02:31:33;11.60;46.50
33943;DHT22;66763;47.856;17.462;2023-03-04T02:34:00;11.60;46.50
33943;DHT22;66763;47.856;17.462;2023-03-04T02:36:26;11.60;46.50
33943;DHT22;66763;47.856;17.462;2023-03-04T02:38:53;11.60;46.50
33943;DHT22;66763;47.856;17.462;2023-03-04T02:41:20;11.60;46.50
33943;DHT22;66763;47.856;17.462;2023-03-04T02:43:48;11.60;46.50
33943;DHT22;66763;47.856;17.462;2023-03-04T02:46:14;11.50;46.40
33943;DHT22;66763;47.856;17.462;2023-03-04T02:48:39;11.50;46.40
33943;DHT22;66763;47.856;17.462;2023-03-04T02:51:05;11.50;46.40
33943;DHT22;66763;47.856;17.462;2023-03-04T02:53:30;11.50;46.40
33943;DHT22;66763;47.856;17.462;2023-03-04T02:55:56;11.60;46.40
33943;DHT22;66763;47.856;17.462;2023-03-04T02:58:21;11.50;46.40
33943;DHT22;66763;47.856;17.462;2023-03-04T03:00:47;11.50;46.30
33943;DHT22;66763;47.856;17.462;2023-03-04T03:03:12;11.50;46.40
33943;DHT22;66763;47.856;17.462;2023-03-04T03:05:38;11.50;46.40
33943;DHT22;66763;47.856;17.462;2023-03-04T03:08:03;11.50;46.40
33943;DHT22;66763;47.856;17.462;2023-03-04T03:10:29;11.50;46.40
33943;DHT22;66763;47.856;17.462;2023-03-04T03:12:55;11.50;46.40
33943;DHT22;66763;47.856;17.462;2023-03-04T03:15:20;11.50;46.40
33943;DHT22;66763;47.856;17.462;2023-03-04T03:17:46;11.50;46.30
33943;DHT22;66763;47.856;17.462;2023-03-04T03:20:12;11.50;46.40
33943;DHT22;66763;47.856;17.462;2023-03-04T03:22:38;11.50;46.40
33943;DHT22;66763;47.856;17.462;2023-03-04T03:25:04;11.50;46.30
33943;DHT22;66763;47.856;17.462;2023-03-04T03:27:29;11.50;46.40
33943;DHT22;66763;47.856;17.462;2023-03-04T03:29:55;11.50;46.40
33943;DHT22;66763;47.856;17.462;2023-03-04T03:32:20;11.40;46.30
33943;DHT22;66763;47.856;17.462;2023-03-04T03:34:46;11.50;46.30
33943;DHT22;66763;47.856;17.462;2023-03-04T03:37:12;11.50;46.30
33943;DHT22;66763;47.856;17.462;2023-03-04T03:39:38;11.50;46.40
33943;DHT22;66763;47.856;17.462;2023-03-04T03:42:03;11.50;46.40
33943;DHT22;66763;47.856;17.462;2023-03-04T03:44:28;11.40;46.30
33943;DHT22;66763;47.856;17.462;2023-03-04T03:46:54;11.40;46.30
33943;DHT22;66763;47.856;17.462;2023-03-04T03:49:19;11.40;46.20
33943;DHT22;66763;47.856;17.462;2023-03-04T03:51:45;11.40;46.20
33943;DHT22;66763;47.856;17.462;2023-03-04T03:54:11;11.40;46.30
33943;DHT22;66763;47.856;17.462;2023-03-04T03:56:37;11.40;46.30
33943;DHT22;66763;47.856;17.462;2023-03-04T03:59:02;11.40;46.30
33943;DHT22;66763;47.856;17.462;2023-03-04T04:01:27;11.40;46.30
33943;DHT22;66763;47.856;17.462;2023-03-04T04:03:53;11.40;46.30
33943;DHT22;66763;47.856;17.462;2023-03-04T04:06:19;11.40;46.40
33943;DHT22;66763;47.856;17.462;2023-03-04T04:08:44;11.40;46.30
33943;DHT22;66763;47.856;17.462;2023-03-04T04:11:10;11.30;46.20
33943;DHT22;66763;47.856;17.462;2023-03-04T04:13:36;11.40;46.30
33943;DHT22;66763;47.856;17.462;2023-03-04T04:16:01;11.40;46.30
33943;DHT22;66763;47.856;17.462;2023-03-04T04:18:27;11.40;46.30
33943;DHT22;66763;47.856;17.462;2023-03-04T04:20:52;11.30;46.30
33943;DHT22;66763;47.856;17.462;2023-03-04T04:23:18;11.30;46.20
33943;DHT22;66763;47.856;17.462;2023-03-04T04:25:44;11.30;46.20
33943;DHT22;66763;47.856;17.462;2023-03-04T04:28:09;11.30;46.20
33943;DHT22;66763;47.856;17.462;2023-03-04T04:30:35;11.30;46.10
33943;DHT22;66763;47.856;17.462;2023-03-04T04:33:00;11.40;46.30
33943;DHT22;66763;47.856;17.462;2023-03-04T04:35:29;11.30;46.30
33943;DHT22;66763;47.856;17.462;2023-03-04T04:37:54;11.30;46.20
33943;DHT22;66763;47.856;17.462;2023-03-04T04:40:20;11.30;46.30
33943;DHT22;66763;47.856;17.462;2023-03-04T04:42:45;11.30;46.20
33943;DHT22;66763;47.856;17.462;2023-03-04T04:45:11;11.30;46.20
33943;DHT22;66763;47.856;17.462;2023-03-04T04:47:36;11.30;46.30
33943;DHT22;66763;47.856;17.462;2023-03-04T04:50:02;11.30;46.20
33943;DHT22;66763;47.856;17.462;2023-03-04T04:52:28;11.20;46.30
33943;DHT22;66763;47.856;17.462;2023-03-04T04:54:53;11.30;46.30
33943;DHT22;66763;47.856;17.462;2023-03-04T04:57:19;11.20;46.20
33943;DHT22;66763;47.856;17.462;2023-03-04T04:59:44;11.30;46.30
33943;DHT22;66763;47.856;17.462;2023-03-04T05:02:10;11.20;46.20
33943;DHT22;66763;47.856;17.462;2023-03-04T05:04:35;11.20;46.20
33943;DHT22;66763;47.856;17.462;2023-03-04T05:07:01;11.20;46.20
33943;DHT22;66763;47.856;17.462;2023-03-04T05:09:26;11.20;46.20
33943;DHT22;66763;47.856;17.462;2023-03-04T05:11:52;11.20;46.20
33943;DHT22;66763;47.856;17.462;2023-03-04T05:14:17;11.20;46.30
33943;DHT22;66763;47.856;17.462;2023-03-04T05:16:43;11.20;46.20
33943;DHT22;66763;47.856;17.462;2023-03-04T05:19:08;11.20;46.30
33943;DHT22;66763;47.856;17.462;2023-03-04T05:21:34;11.20;46.20
33943;DHT22;66763;47.856;17.462;2023-03-04T05:23:59;11.20;46.30
33943;DHT22;66763;47.856;17.462;2023-03-04T05:26:25;11.20;46.30
33943;DHT22;66763;47.856;17.462;2023-03-04T05:28:50;11.20;46.30
33943;DHT22;66763;47.856;17.462;2023-03-04T05:31:16;11.20;46.30
33943;DHT22;66763;47.856;17.462;2023-03-04T05:33:42;11.20;46.20
33943;DHT22;66763;47.856;17.462;2023-03-04T05:36:07;11.20;46.30
33943;DHT22;66763;47.856;17.462;2023-03-04T05:38:33;11.20;46.20
33943;DHT22;66763;47.856;17.462;2023-03-04T05:41:00;11.20;46.10
33943;DHT22;66763;47.856;17.462;2023-03-04T05:43:26;11.20;46.30
33943;DHT22;66763;47.856;17.462;2023-03-04T05:45:52;11.20;46.20
33943;DHT22;66763;47.856;17.462;2023-03-04T05:48:18;11.20;46.20
33943;DHT22;66763;47.856;17.462;2023-03-04T05:50:43;11.20;46.30
33943;DHT22;66763;47.856;17.462;2023-03-04T05:53:09;11.20;46.20
33943;DHT22;66763;47.856;17.462;2023-03-04T05:55:34;11.10;46.10
33943;DHT22;66763;47.856;17.462;2023-03-04T05:57:59;11.10;46.10
33943;DHT22;66763;47.856;17.462;2023-03-04T06:00:25;11.10;46.20
33943;DHT22;66763;47.856;17.462;2023-03-04T06:02:51;11.10;46.20
33943;DHT22;66763;47.856;17.462;2023-03-04T06:05:16;11.10;46.10
33943;DHT22;66763;47.856;17.462;2023-03-04T06:07:42;11.10;46.10
33943;DHT22;66763;47.856;17.462;2023-03-04T06:10:08;11.20;46.30
33943;DHT22;66763;47.856;17.462;2023-03-04T06:12:34;11.20;46.20
33943;DHT22;66763;47.856;17.462;2023-03-04T06:15:00;11.20;46.20
33943;DHT22;66763;47.856;17.462;2023-03-04T06:17:27;11.10;46.00
33943;DHT22;66763;47.856;17.462;2023-03-04T06:19:53;11.10;46.10
33943;DHT22;66763;47.856;17.462;2023-03-04T06:22:18;11.10;46.10
33943;DHT22;66763;47.856;17.462;2023-03-04T06:24:44;11.10;46.10
33943;DHT22;66763;47.856;17.462;2023-03-04T06:27:09;11.20;46.20
33943;DHT22;66763;47.856;17.462;2023-03-04T06:29:35;11.10;46.20
33943;DHT22;66763;47.856;17.462;2023-03-04T06:32:00;11.20;46.30
33943;DHT22;66763;47.856;17.462;2023-03-04T06:34:26;11.20;46.50
33943;DHT22;66763;47.856;17.462;2023-03-04T06:36:52;11.30;46.50
33943;DHT22;66763;47.856;17.462;2023-03-04T06:39:18;11.50;46.40
33943;DHT22;66763;47.856;17.462;2023-03-04T06:41:43;11.70;46.00
33943;DHT22;66763;47.856;17.462;2023-03-04T06:44:09;12.00;45.80
33943;DHT22;66763;47.856;17.462;2023-03-04T06:46:34;12.10;45.40
33943;DHT22;66763;47.856;17.462;2023-03-04T06:49:00;12.30;45.00
33943;DHT22;66763;47.856;17.462;2023-03-04T06:51:26;12.50;44.80
33943;DHT22;66763;47.856;17.462;2023-03-04T06:53:51;12.60;44.40
33943;DHT22;66763;47.856;17.462;2023-03-04T06:56:17;12.80;44.30
33943;DHT22;66763;47.856;17.462;2023-03-04T06:58:43;12.90;44.20
33943;DHT22;66763;47.856;17.462;2023-03-04T07:04:03;13.10;43.90
33943;DHT22;66763;47.856;17.462;2023-03-04T07:06:29;13.20;43.70
33943;DHT22;66763;47.856;17.462;2023-03-04T07:08:55;13.30;43.60
33943;DHT22;66763;47.856;17.462;2023-03-04T07:11:21;13.40;43.50
33943;DHT22;66763;47.856;17.462;2023-03-04T07:13:47;13.30;43.40
33943;DHT22;66763;47.856;17.462;2023-03-04T07:16:14;13.30;43.40
33943;DHT22;66763;47.856;17.462;2023-03-04T07:18:39;13.30;43.40
33943;DHT22;66763;47.856;17.462;2023-03-04T07:21:05;13.30;43.50
33943;DHT22;66763;47.856;17.462;2023-03-04T07:23:31;13.30;43.50
33943;DHT22;66763;47.856;17.462;2023-03-04T07:25:57;13.20;43.70
33943;DHT22;66763;47.856;17.462;2023-03-04T07:28:22;13.20;43.70
33943;DHT22;66763;47.856;17.462;2023-03-04T07:30:48;13.10;43.80
33943;DHT22;66763;47.856;17.462;2023-03-04T07:33:13;13.10;43.90
33943;DHT22;66763;47.856;17.462;2023-03-04T07:35:39;13.10;44.00
33943;DHT22;66763;47.856;17.462;2023-03-04T07:38:05;13.00;44.00
33943;DHT22;66763;47.856;17.462;2023-03-04T07:40:30;13.00;44.20
33943;DHT22;66763;47.856;17.462;2023-03-04T07:42:55;12.90;44.10
33943;DHT22;66763;47.856;17.462;2023-03-04T07:45:21;12.80;44.20
33943;DHT22;66763;47.856;17.462;2023-03-04T07:47:47;12.80;44.40
33943;DHT22;66763;47.856;17.462;2023-03-04T07:50:13;12.80;44.50
33943;DHT22;66763;47.856;17.462;2023-03-04T07:52:45;12.70;44.50
33943;DHT22;66763;47.856;17.462;2023-03-04T07:55:12;12.70;44.60
33943;DHT22;66763;47.856;17.462;2023-03-04T07:57:39;12.60;44.70
33943;DHT22;66763;47.856;17.462;2023-03-04T08:00:05;12.60;44.80
33943;DHT22;66763;47.856;17.462;2023-03-04T08:02:30;12.50;44.80
33943;DHT22;66763;47.856;17.462;2023-03-04T08:04:56;12.50;44.90
33943;DHT22;66763;47.856;17.462;2023-03-04T08:07:22;12.50;45.00
33943;DHT22;66763;47.856;17.462;2023-03-04T08:09:47;12.40;45.00
33943;DHT22;66763;47.856;17.462;2023-03-04T08:12:13;12.40;45.10
33943;DHT22;66763;47.856;17.462;2023-03-04T08:14:38;12.40;45.10
33943;DHT22;66763;47.856;17.462;2023-03-04T08:17:04;12.30;45.20
33943;DHT22;66763;47.856;17.462;2023-03-04T08:19:29;12.30;45.30
33943;DHT22;66763;47.856;17.462;2023-03-04T08:21:55;12.30;45.30
33943;DHT22;66763;47.856;17.462;2023-03-04T08:24:20;12.20;45.30
33943;DHT22;66763;47.856;17.462;2023-03-04T08:26:46;12.20;45.50
33943;DHT22;66763;47.856;17.462;2023-03-04T08:29:14;12.20;45.50
33943;DHT22;66763;47.856;17.462;2023-03-04T08:31:40;12.20;45.60
33943;DHT22;66763;47.856;17.462;2023-03-04T08:34:05;12.10;45.60
33943;DHT22;66763;47.856;17.462;2023-03-04T08:36:32;12.10;45.60
33943;DHT22;66763;47.856;17.462;2023-03-04T08:38:58;12.00;45.60
33943;DHT22;66763;47.856;17.462;2023-03-04T08:41:23;12.00;45.70
33943;DHT22;66763;47.856;17.462;2023-03-04T08:43:51;12.00;45.80
33943;DHT22;66763;47.856;17.462;2023-03-04T08:46:17;12.00;46.00
33943;DHT22;66763;47.856;17.462;2023-03-04T08:48:42;12.00;45.80
33943;DHT22;66763;47.856;17.462;2023-03-04T08:51:08;12.00;45.80
33943;DHT22;66763;47.856;17.462;2023-03-04T08:53:34;12.00;45.90
33943;DHT22;66763;47.856;17.462;2023-03-04T08:56:00;12.00;45.80
33943;DHT22;66763;47.856;17.462;2023-03-04T08:58:26;12.00;45.80
33943;DHT22;66763;47.856;17.462;2023-03-04T09:00:51;12.00;45.90
33943;DHT22;66763;47.856;17.462;2023-03-04T09:03:17;12.00;46.00
33943;DHT22;66763;47.856;17.462;2023-03-04T09:05:44;12.00;45.90
33943;DHT22;66763;47.856;17.462;2023-03-04T09:08:09;12.00;45.90
33943;DHT22;66763;47.856;17.462;2023-03-04T09:10:35;11.90;45.90
33943;DHT22;66763;47.856;17.462;2023-03-04T09:13:00;11.90;45.90
33943;DHT22;66763;47.856;17.462;2023-03-04T09:15:26;11.90;45.90
33943;DHT22;66763;47.856;17.462;2023-03-04T09:17:51;11.90;46.00
33943;DHT22;66763;47.856;17.462;2023-03-04T09:20:17;11.90;46.00
33943;DHT22;66763;47.856;17.462;2023-03-04T09:22:43;11.90;46.00
33943;DHT22;66763;47.856;17.462;2023-03-04T09:25:10;11.90;46.00
33943;DHT22;66763;47.856;17.462;2023-03-04T09:27:37;11.90;45.90
33943;DHT22;66763;47.856;17.462;2023-03-04T09:30:03;11.90;45.90
33943;DHT22;66763;47.856;17.462;2023-03-04T09:32:29;11.90;46.00
33943;DHT22;66763;47.856;17.462;2023-03-04T09:34:54;11.90;45.90
33943;DHT22;66763;47.856;17.462;2023-03-04T09:37:19;11.90;46.00
33943;DHT22;66763;47.856;17.462;2023-03-04T09:39:45;11.90;46.00
33943;DHT22;66763;47.856;17.462;2023-03-04T09:42:13;11.80;45.90
33943;DHT22;66763;47.856;17.462;2023-03-04T09:44:41;11.80;46.00
33943;DHT22;66763;47.856;17.462;2023-03-04T09:47:15;11.80;46.00
33943;DHT22;66763;47.856;17.462;2023-03-04T09:49:42;11.80;46.00
33943;DHT22;66763;47.856;17.462;2023-03-04T09:57:22;11.80;46.10
33943;DHT22;66763;47.856;17.462;2023-03-04T09:59:59;11.80;46.10
33943;DHT22;66763;47.856;17.462;2023-03-04T10:02:31;11.70;46.00
33943;DHT22;66763;47.856;17.462;2023-03-04T10:04:59;11.70;46.10
33943;DHT22;66763;47.856;17.462;2023-03-04T10:07:28;11.70;46.00
33943;DHT22;66763;47.856;17.462;2023-03-04T10:09:57;11.70;46.10
33943;DHT22;66763;47.856;17.462;2023-03-04T10:12:23;11.70;46.10
33943;DHT22;66763;47.856;17.462;2023-03-04T10:15:02;11.70;46.10
33943;DHT22;66763;47.856;17.462;2023-03-04T10:17:32;11.70;46.10
33943;DHT22;66763;47.856;17.462;2023-03-04T10:20:11;11.70;46.10
33943;DHT22;66763;47.856;17.462;2023-03-04T10:22:59;11.70;46.10
33943;DHT22;66763;47.856;17.462;2023-03-04T10:25:28;11.70;46.10
33943;DHT22;66763;47.856;17.462;2023-03-04T10:28:04;11.60;46.20
33943;DHT22;66763;47.856;17.462;2023-03-04T10:30:49;11.70;46.20
33943;DHT22;66763;47.856;17.462;2023-03-04T10:33:17;11.60;46.20
33943;DHT22;66763;47.856;17.462;2023-03-04T10:35:47;11.60;46.20
33943;DHT22;66763;47.856;17.462;2023-03-04T10:38:14;11.60;46.20
33943;DHT22;66763;47.856;17.462;2023-03-04T10:40:40;11.60;46.30
33943;DHT22;66763;47.856;17.462;2023-03-04T10:43:12;11.60;46.30
33943;DHT22;66763;47.856;17.462;2023-03-04T10:45:38;11.60;46.30
33943;DHT22;66763;47.856;17.462;2023-03-04T10:48:04;11.60;46.30
33943;DHT22;66763;47.856;17.462;2023-03-04T10:50:30;11.60;46.30
33943;DHT22;66763;47.856;17.462;2023-03-04T10:52:58;11.60;46.30
33943;DHT22;66763;47.856;17.462;2023-03-04T10:55:28;11.60;46.30
33943;DHT22;66763;47.856;17.462;2023-03-04T10:58:04;11.60;46.30
33943;DHT22;66763;47.856;17.462;2023-03-04T11:00:33;11.60;46.30
33943;DHT22;66763;47.856;17.462;2023-03-04T11:05:43;11.60;46.30
33943;DHT22;66763;47.856;17.462;2023-03-04T11:08:15;11.50;46.40
33943;DHT22;66763;47.856;17.462;2023-03-04T11:10:41;11.50;46.40
33943;DHT22;66763;47.856;17.462;2023-03-04T11:18:22;11.50;46.40
33943;DHT22;66763;47.856;17.462;2023-03-04T11:20:48;11.50;46.40
33943;DHT22;66763;47.856;17.462;2023-03-04T11:23:18;11.50;46.40
33943;DHT22;66763;47.856;17.462;2023-03-04T11:25:55;11.50;46.40
33943;DHT22;66763;47.856;17.462;2023-03-04T11:30:53;11.50;46.40
33943;DHT22;66763;47.856;17.462;2023-03-04T11:33:37;11.50;46.40
33943;DHT22;66763;47.856;17.462;2023-03-04T11:38:52;11.50;46.40
33943;DHT22;66763;47.856;17.462;2023-03-04T11:41:19;11.40;46.50
33943;DHT22;66763;47.856;17.462;2023-03-04T11:43:47;11.50;46.50
33943;DHT22;66763;47.856;17.462;2023-03-04T11:52:13;11.40;46.40
33943;DHT22;66763;47.856;17.462;2023-03-04T11:56:44;11.50;46.50
33943;DHT22;66763;47.856;17.462;2023-03-04T11:59:27;11.50;46.50
33943;DHT22;66763;47.856;17.462;2023-03-04T12:04:32;11.40;46.40
33943;DHT22;66763;47.856;17.462;2023-03-04T12:09:53;11.40;46.40
33943;DHT22;66763;47.856;17.462;2023-03-04T12:12:24;11.40;46.40
33943;DHT22;66763;47.856;17.462;2023-03-04T12:17:25;11.50;46.40
33943;DHT22;66763;47.856;17.462;2023-03-04T12:22:45;11.50;46.40
33943;DHT22;66763;47.856;17.462;2023-03-04T12:25:44;11.50;46.40
33943;DHT22;66763;47.856;17.462;2023-03-04T12:28:23;11.50;46.40
33943;DHT22;66763;47.856;17.462;2023-03-04T12:33:31;11.50;46.30
33943;DHT22;66763;47.856;17.462;2023-03-04T12:49:01;11.50;46.40
33943;DHT22;66763;47.856;17.462;2023-03-04T12:51:35;11.40;46.30
33943;DHT22;66763;47.856;17.462;2023-03-04T12:57:16;11.50;46.40
33943;DHT22;66763;47.856;17.462;2023-03-04T12:59:16;11.50;46.40
33943;DHT22;66763;47.856;17.462;2023-03-04T13:04:28;11.40;46.40
33943;DHT22;66763;47.856;17.462;2023-03-04T13:09:48;11.50;46.40
33943;DHT22;66763;47.856;17.462;2023-03-04T13:12:18;11.40;46.40
33943;DHT22;66763;47.856;17.462;2023-03-04T13:17:43;11.40;46.40
33943;DHT22;66763;47.856;17.462;2023-03-04T13:20:12;11.50;46.40
33943;DHT22;66763;47.856;17.462;2023-03-04T13:22:44;11.40;46.40
33943;DHT22;66763;47.856;17.462;2023-03-04T13:33:05;11.40;46.40
33943;DHT22;66763;47.856;17.462;2023-03-04T13:38:21;11.40;46.40
33943;DHT22;66763;47.856;17.462;2023-03-04T13:41:29;11.40;46.40
33943;DHT22;66763;47.856;17.462;2023-03-04T13:43:37;11.50;46.40
33943;DHT22;66763;47.856;17.462;2023-03-04T13:48:45;11.40;46.40
33943;DHT22;66763;47.856;17.462;2023-03-04T13:56:24;11.40;46.40
33943;DHT22;66763;47.856;17.462;2023-03-04T13:58:52;11.40;46.40
33943;DHT22;66763;47.856;17.462;2023-03-04T14:01:26;11.40;46.40
33943;DHT22;66763;47.856;17.462;2023-03-04T14:03:53;11.40;46.40
33943;DHT22;66763;47.856;17.462;2023-03-04T14:06:20;11.40;46.40
33943;DHT22;66763;47.856;17.462;2023-03-04T14:08:46;11.40;46.40
33943;DHT22;66763;47.856;17.462;2023-03-04T14:11:13;11.40;46.40
33943;DHT22;66763;47.856;17.462;2023-03-04T14:13:39;11.40;46.40
33943;DHT22;66763;47.856;17.462;2023-03-04T14:16:05;11.40;46.40
33943;DHT22;66763;47.856;17.462;2023-03-04T14:18:31;11.40;46.40
33943;DHT22;66763;47.856;17.462;2023-03-04T14:20:57;11.40;47.00
33943;DHT22;66763;47.856;17.462;2023-03-04T14:23:30;11.40;46.40
33943;DHT22;66763;47.856;17.462;2023-03-04T14:26:06;11.40;46.40
33943;DHT22;66763;47.856;17.462;2023-03-04T14:28:41;11.40;46.40
33943;DHT22;66763;47.856;17.462;2023-03-04T14:31:10;11.40;46.40
33943;DHT22;66763;47.856;17.462;2023-03-04T14:33:39;11.40;46.40
33943;DHT22;66763;47.856;17.462;2023-03-04T14:36:12;11.40;46.40
33943;DHT22;66763;47.856;17.462;2023-03-04T14:38:39;11.40;46.40
33943;DHT22;66763;47.856;17.462;2023-03-04T14:41:16;11.40;46.40
33943;DHT22;66763;47.856;17.462;2023-03-04T14:43:46;11.40;46.40
33943;DHT22;66763;47.856;17.462;2023-03-04T14:46:14;11.40;46.40
33943;DHT22;66763;47.856;17.462;2023-03-04T14:48:44;11.40;46.40
33943;DHT22;66763;47.856;17.462;2023-03-04T14:51:27;11.40;46.40
33943;DHT22;66763;47.856;17.462;2023-03-04T14:53:54;11.40;46.40
33943;DHT22;66763;47.856;17.462;2023-03-04T14:56:25;11.30;46.40
33943;DHT22;66763;47.856;17.462;2023-03-04T14:58:52;11.40;46.40
33943;DHT22;66763;47.856;17.462;2023-03-04T15:01:22;11.40;46.40
33943;DHT22;66763;47.856;17.462;2023-03-04T15:06:20;11.30;46.40
33943;DHT22;66763;47.856;17.462;2023-03-04T15:08:46;11.30;46.40
33943;DHT22;66763;47.856;17.462;2023-03-04T15:11:22;11.40;46.40
33943;DHT22;66763;47.856;17.462;2023-03-04T15:13:50;11.40;46.40
33943;DHT22;66763;47.856;17.462;2023-03-04T15:16:17;11.30;46.40
33943;DHT22;66763;47.856;17.462;2023-03-04T15:23:53;11.30;46.40
33943;DHT22;66763;47.856;17.462;2023-03-04T15:26:18;11.30;46.40
33943;DHT22;66763;47.856;17.462;2023-03-04T15:28:44;11.30;46.40
33943;DHT22;66763;47.856;17.462;2023-03-04T15:31:16;11.30;46.40
33943;DHT22;66763;47.856;17.462;2023-03-04T15:33:42;11.30;46.40
33943;DHT22;66763;47.856;17.462;2023-03-04T15:36:09;11.30;46.40
33943;DHT22;66763;47.856;17.462;2023-03-04T15:38:36;11.30;46.40
33943;DHT22;66763;47.856;17.462;2023-03-04T15:41:01;11.30;46.40
33943;DHT22;66763;47.856;17.462;2023-03-04T15:43:27;11.30;46.40
33943;DHT22;66763;47.856;17.462;2023-03-04T15:45:53;11.30;46.40
33943;DHT22;66763;47.856;17.462;2023-03-04T15:48:19;11.30;46.40
33943;DHT22;66763;47.856;17.462;2023-03-04T15:50:54;11.30;46.40
33943;DHT22;66763;47.856;17.462;2023-03-04T15:55:46;11.30;46.50
33943;DHT22;66763;47.856;17.462;2023-03-04T15:58:12;11.30;46.50
33943;DHT22;66763;47.856;17.462;2023-03-04T16:00:38;11.30;46.50
33943;DHT22;66763;47.856;17.462;2023-03-04T16:03:04;11.30;46.50
33943;DHT22;66763;47.856;17.462;2023-03-04T16:05:30;11.30;46.50
33943;DHT22;66763;47.856;17.462;2023-03-04T16:07:57;11.30;46.50
33943;DHT22;66763;47.856;17.462;2023-03-04T16:10:26;11.30;46.50
33943;DHT22;66763;47.856;17.462;2023-03-04T16:12:52;11.30;46.40
33943;DHT22;66763;47.856;17.462;2023-03-04T16:15:22;11.30;46.50
33943;DHT22;66763;47.856;17.462;2023-03-04T16:17:48;11.30;46.50
33943;DHT22;66763;47.856;17.462;2023-03-04T16:20:16;11.30;46.40
33943;DHT22;66763;47.856;17.462;2023-03-04T16:22:42;11.30;46.50
33943;DHT22;66763;47.856;17.462;2023-03-04T16:25:09;11.30;46.50
33943;DHT22;66763;47.856;17.462;2023-03-04T16:27:35;11.30;46.40
33943;DHT22;66763;47.856;17.462;2023-03-04T16:30:01;11.30;46.50
33943;DHT22;66763;47.856;17.462;2023-03-04T16:32:26;11.30;46.50
33943;DHT22;66763;47.856;17.462;2023-03-04T16:34:52;11.30;46.50
33943;DHT22;66763;47.856;17.462;2023-03-04T16:37:18;11.30;46.50
33943;DHT22;66763;47.856;17.462;2023-03-04T16:39:44;11.30;46.50
33943;DHT22;66763;47.856;17.462;2023-03-04T16:42:15;11.30;46.50
33943;DHT22;66763;47.856;17.462;2023-03-04T16:44:46;11.30;46.50
33943;DHT22;66763;47.856;17.462;2023-03-04T16:47:12;11.30;46.50
33943;DHT22;66763;47.856;17.462;2023-03-04T16:49:38;11.20;46.50
33943;DHT22;66763;47.856;17.462;2023-03-04T16:52:03;11.30;46.50
33943;DHT22;66763;47.856;17.462;2023-03-04T16:54:31;11.30;46.50